sensor_id;sensor_type;location;lat;lon;timestamp;temperature;humidity
71047;SHT31;58703;48.978;8.982;2023-04-01T00:00:57;10.01;77.65
71047;SHT31;58703;48.978;8.982;2023-04-01T00:03:24;9.97;77.50
71047;SHT31;58703;48.978;8.982;2023-04-01T00:05:51;10.09;77.33
71047;SHT31;58703;48.978;8.982;2023-04-01T00:08:16;10.11;77.07
71047;SHT31;58703;48.978;8.982;2023-04-01T00:10:42;10.10;77.01
71047;SHT31;58703;48.978;8.982;2023-04-01T00:13:10;10.21;76.82
71047;SHT31;58703;48.978;8.982;2023-04-01T00:15:35;10.06;77.83
71047;SHT31;58703;48.978;8.982;2023-04-01T00:18:02;10.17;77.21
71047;SHT31;58703;48.978;8.982;2023-04-01T00:20:28;10.22;77.16
71047;SHT31;58703;48.978;8.982;2023-04-01T00:22:54;10.21;77.19
71047;SHT31;58703;48.978;8.982;2023-04-01T00:25:20;10.07;78.12
71047;SHT31;58703;48.978;8.982;2023-04-01T00:27:46;10.27;77.19
71047;SHT31;58703;48.978;8.982;2023-04-01T00:30:13;10.20;77.19
71047;SHT31;58703;48.978;8.982;2023-04-01T00:32:39;10.13;77.88
71047;SHT31;58703;48.978;8.982;2023-04-01T00:35:05;10.25;77.37
71047;SHT31;58703;48.978;8.982;2023-04-01T00:37:31;10.21;77.37
71047;SHT31;58703;48.978;8.982;2023-04-01T00:39:59;10.24;76.89
71047;SHT31;58703;48.978;8.982;2023-04-01T00:42:25;10.17;77.35
71047;SHT31;58703;48.978;8.982;2023-04-01T00:44:54;10.09;77.95
71047;SHT31;58703;48.978;8.982;2023-04-01T00:47:22;10.17;77.31
71047;SHT31;58703;48.978;8.982;2023-04-01T00:49:51;10.22;76.79
71047;SHT31;58703;48.978;8.982;2023-04-01T00:52:21;9.96;78.64
71047;SHT31;58703;48.978;8.982;2023-04-01T00:54:51;10.07;77.74
71047;SHT31;58703;48.978;8.982;2023-04-01T00:57:28;10.11;77.93
71047;SHT31;58703;48.978;8.982;2023-04-01T00:59:57;10.33;76.93
71047;SHT31;58703;48.978;8.982;2023-04-01T01:02:24;10.30;76.88
71047;SHT31;58703;48.978;8.982;2023-04-01T01:04:50;10.20;77.38
71047;SHT31;58703;48.978;8.982;2023-04-01T01:10:19;10.30;76.65
71047;SHT31;58703;48.978;8.982;2023-04-01T01:13:11;10.24;77.29
71047;SHT31;58703;48.978;8.982;2023-04-01T01:26:52;10.10;77.83
71047;SHT31;58703;48.978;8.982;2023-04-01T01:35:22;10.34;75.70
71047;SHT31;58703;48.978;8.982;2023-04-01T01:37:54;10.30;75.90
71047;SHT31;58703;48.978;8.982;2023-04-01T01:40:21;10.24;76.58
71047;SHT31;58703;48.978;8.982;2023-04-01T01:42:50;10.21;76.61
71047;SHT31;58703;48.978;8.982;2023-04-01T01:45:19;10.25;76.25
71047;SHT31;58703;48.978;8.982;2023-04-01T01:47:48;10.25;76.33
71047;SHT31;58703;48.978;8.982;2023-04-01T01:50:15;10.22;76.33
71047;SHT31;58703;48.978;8.982;2023-04-01T01:52:42;10.21;76.77
71047;SHT31;58703;48.978;8.982;2023-04-01T01:57:52;10.31;75.38
71047;SHT31;58703;48.978;8.982;2023-04-01T02:00:20;10.20;76.29
71047;SHT31;58703;48.978;8.982;2023-04-01T02:02:48;10.22;75.20
71047;SHT31;58703;48.978;8.982;2023-04-01T02:05:20;10.25;75.02
71047;SHT31;58703;48.978;8.982;2023-04-01T02:07:51;10.36;74.44
71047;SHT31;58703;48.978;8.982;2023-04-01T02:10:19;10.28;74.87
71047;SHT31;58703;48.978;8.982;2023-04-01T02:12:47;10.13;75.84
71047;SHT31;58703;48.978;8.982;2023-04-01T02:15:15;10.14;75.55
71047;SHT31;58703;48.978;8.982;2023-04-01T02:17:46;10.04;76.23
71047;SHT31;58703;48.978;8.982;2023-04-01T02:20:20;10.06;76.09
71047;SHT31;58703;48.978;8.982;2023-04-01T02:22:50;9.62;78.67
71047;SHT31;58703;48.978;8.982;2023-04-01T02:25:21;9.55;79.17
71047;SHT31;58703;48.978;8.982;2023-04-01T02:27:48;9.60;79.43
71047;SHT31;58703;48.978;8.982;2023-04-01T02:30:15;9.48;80.14
71047;SHT31;58703;48.978;8.982;2023-04-01T02:32:42;9.32;80.82
71047;SHT31;58703;48.978;8.982;2023-04-01T02:35:14;9.16;82.15
71047;SHT31;58703;48.978;8.982;2023-04-01T02:37:41;9.15;82.21
71047;SHT31;58703;48.978;8.982;2023-04-01T02:40:09;9.31;80.63
71047;SHT31;58703;48.978;8.982;2023-04-01T02:42:36;9.46;80.28
71047;SHT31;58703;48.978;8.982;2023-04-01T02:45:02;9.60;78.86
71047;SHT31;58703;48.978;8.982;2023-04-01T02:47:28;9.67;78.69
71047;SHT31;58703;48.978;8.982;2023-04-01T02:49:54;9.69;78.37
71047;SHT31;58703;48.978;8.982;2023-04-01T02:52:25;9.70;78.57
71047;SHT31;58703;48.978;8.982;2023-04-01T02:54:52;9.75;77.87
71047;SHT31;58703;48.978;8.982;2023-04-01T02:57:18;9.62;78.73
71047;SHT31;58703;48.978;8.982;2023-04-01T02:59:44;9.67;78.19
71047;SHT31;58703;48.978;8.982;2023-04-01T03:02:11;9.69;78.07
71047;SHT31;58703;48.978;8.982;2023-04-01T03:04:37;9.62;78.28
71047;SHT31;58703;48.978;8.982;2023-04-01T03:07:04;9.49;79.06
71047;SHT31;58703;48.978;8.982;2023-04-01T03:09:30;9.59;78.51
71047;SHT31;58703;48.978;8.982;2023-04-01T03:11:55;9.62;78.41
71047;SHT31;58703;48.978;8.982;2023-04-01T03:14:22;9.59;78.39
71047;SHT31;58703;48.978;8.982;2023-04-01T03:16:48;9.52;78.57
71047;SHT31;58703;48.978;8.982;2023-04-01T03:19:13;9.45;78.81
71047;SHT31;58703;48.978;8.982;2023-04-01T03:21:39;9.26;79.75
71047;SHT31;58703;48.978;8.982;2023-04-01T03:24:06;9.43;78.86
71047;SHT31;58703;48.978;8.982;2023-04-01T03:26:33;9.36;79.06
71047;SHT31;58703;48.978;8.982;2023-04-01T03:28:58;9.31;79.30
71047;SHT31;58703;48.978;8.982;2023-04-01T03:31:24;9.19;79.91
71047;SHT31;58703;48.978;8.982;2023-04-01T03:33:50;9.18;79.72
71047;SHT31;58703;48.978;8.982;2023-04-01T03:36:16;9.36;79.00
71047;SHT31;58703;48.978;8.982;2023-04-01T03:38:44;9.31;79.41
71047;SHT31;58703;48.978;8.982;2023-04-01T03:41:16;9.15;80.00
71047;SHT31;58703;48.978;8.982;2023-04-01T03:43:43;9.01;80.81
71047;SHT31;58703;48.978;8.982;2023-04-01T03:46:09;9.07;80.39
71047;SHT31;58703;48.978;8.982;2023-04-01T03:48:34;9.03;80.73
71047;SHT31;58703;48.978;8.982;2023-04-01T03:51:06;9.05;80.46
71047;SHT31;58703;48.978;8.982;2023-04-01T03:53:32;8.92;80.92
71047;SHT31;58703;48.978;8.982;2023-04-01T03:56:03;8.98;80.83
71047;SHT31;58703;48.978;8.982;2023-04-01T03:58:29;9.04;80.60
71047;SHT31;58703;48.978;8.982;2023-04-01T04:00:54;9.01;81.11
71047;SHT31;58703;48.978;8.982;2023-04-01T04:03:20;8.98;81.47
71047;SHT31;58703;48.978;8.982;2023-04-01T04:05:47;9.04;81.27
71047;SHT31;58703;48.978;8.982;2023-04-01T04:08:13;9.14;80.68
71047;SHT31;58703;48.978;8.982;2023-04-01T04:10:40;9.11;81.15
71047;SHT31;58703;48.978;8.982;2023-04-01T04:13:06;9.14;80.99
71047;SHT31;58703;48.978;8.982;2023-04-01T04:15:32;9.14;80.82
71047;SHT31;58703;48.978;8.982;2023-04-01T04:17:58;9.21;80.35
71047;SHT31;58703;48.978;8.982;2023-04-01T04:20:24;9.15;80.55
71047;SHT31;58703;48.978;8.982;2023-04-01T04:22:51;9.24;80.35
71047;SHT31;58703;48.978;8.982;2023-04-01T04:25:16;9.22;80.26
71047;SHT31;58703;48.978;8.982;2023-04-01T04:27:43;9.35;79.33
71047;SHT31;58703;48.978;8.982;2023-04-01T04:30:09;9.38;79.13
71047;SHT31;58703;48.978;8.982;2023-04-01T04:32:35;9.38;79.12
71047;SHT31;58703;48.978;8.982;2023-04-01T04:35:00;9.36;79.22
71047;SHT31;58703;48.978;8.982;2023-04-01T04:37:26;9.26;79.36
71047;SHT31;58703;48.978;8.982;2023-04-01T04:39:52;9.45;78.44
71047;SHT31;58703;48.978;8.982;2023-04-01T04:42:19;9.34;79.15
71047;SHT31;58703;48.978;8.982;2023-04-01T04:44:44;9.35;78.95
71047;SHT31;58703;48.978;8.982;2023-04-01T04:47:11;9.49;77.86
71047;SHT31;58703;48.978;8.982;2023-04-01T04:49:36;9.56;77.57
71047;SHT31;58703;48.978;8.982;2023-04-01T04:52:03;9.65;77.28
71047;SHT31;58703;48.978;8.982;2023-04-01T04:54:29;9.63;77.19
71047;SHT31;58703;48.978;8.982;2023-04-01T04:56:56;9.58;77.53
71047;SHT31;58703;48.978;8.982;2023-04-01T04:59:22;9.62;77.10
71047;SHT31;58703;48.978;8.982;2023-04-01T05:01:48;9.69;76.67
71047;SHT31;58703;48.978;8.982;2023-04-01T05:04:15;9.59;77.39
71047;SHT31;58703;48.978;8.982;2023-04-01T05:06:43;9.55;77.49
71047;SHT31;58703;48.978;8.982;2023-04-01T05:09:10;9.59;77.18
71047;SHT31;58703;48.978;8.982;2023-04-01T05:11:37;9.52;77.35
71047;SHT31;58703;48.978;8.982;2023-04-01T05:14:04;9.56;77.16
71047;SHT31;58703;48.978;8.982;2023-04-01T05:16:31;9.55;77.23
71047;SHT31;58703;48.978;8.982;2023-04-01T05:18:58;9.46;77.85
71047;SHT31;58703;48.978;8.982;2023-04-01T05:21:24;9.48;77.65
71047;SHT31;58703;48.978;8.982;2023-04-01T05:23:49;9.63;76.58
71047;SHT31;58703;48.978;8.982;2023-04-01T05:26:16;9.67;76.66
71047;SHT31;58703;48.978;8.982;2023-04-01T05:28:42;9.60;77.28
71047;SHT31;58703;48.978;8.982;2023-04-01T05:31:08;9.60;77.31
71047;SHT31;58703;48.978;8.982;2023-04-01T05:33:34;9.72;76.29
71047;SHT31;58703;48.978;8.982;2023-04-01T05:36:14;9.69;77.07
71047;SHT31;58703;48.978;8.982;2023-04-01T05:38:40;9.62;77.51
71047;SHT31;58703;48.978;8.982;2023-04-01T05:41:07;9.72;76.50
71047;SHT31;58703;48.978;8.982;2023-04-01T05:43:35;9.73;76.77
71047;SHT31;58703;48.978;8.982;2023-04-01T05:46:02;9.83;76.27
71047;SHT31;58703;48.978;8.982;2023-04-01T05:48:29;9.82;76.42
71047;SHT31;58703;48.978;8.982;2023-04-01T05:50:56;9.91;75.50
71047;SHT31;58703;48.978;8.982;2023-04-01T05:53:22;9.90;76.14
71047;SHT31;58703;48.978;8.982;2023-04-01T05:55:47;9.85;76.26
71047;SHT31;58703;48.978;8.982;2023-04-01T05:58:14;9.93;76.21
71047;SHT31;58703;48.978;8.982;2023-04-01T06:00:41;9.90;76.17
71047;SHT31;58703;48.978;8.982;2023-04-01T06:03:08;9.94;76.05
71047;SHT31;58703;48.978;8.982;2023-04-01T06:05:39;9.94;76.42
71047;SHT31;58703;48.978;8.982;2023-04-01T06:08:17;9.96;76.44
71047;SHT31;58703;48.978;8.982;2023-04-01T06:22:37;9.67;79.04
71047;SHT31;58703;48.978;8.982;2023-04-01T06:27:55;9.65;78.46
71047;SHT31;58703;48.978;8.982;2023-04-01T06:42:19;9.43;80.20
71047;SHT31;58703;48.978;8.982;2023-04-01T06:44:59;9.42;80.59
71047;SHT31;58703;48.978;8.982;2023-04-01T06:47:58;9.42;81.44
71047;SHT31;58703;48.978;8.982;2023-04-01T06:50:30;9.45;81.84
71047;SHT31;58703;48.978;8.982;2023-04-01T06:56:15;9.45;80.83
71047;SHT31;58703;48.978;8.982;2023-04-01T06:58:45;9.46;80.91
71047;SHT31;58703;48.978;8.982;2023-04-01T07:01:17;9.49;81.56
71047;SHT31;58703;48.978;8.982;2023-04-01T07:03:53;9.50;81.13
71047;SHT31;58703;48.978;8.982;2023-04-01T07:06:31;9.49;81.64
71047;SHT31;58703;48.978;8.982;2023-04-01T07:08:59;9.50;81.37
71047;SHT31;58703;48.978;8.982;2023-04-01T07:11:34;9.56;80.93
71047;SHT31;58703;48.978;8.982;2023-04-01T07:14:34;9.59;80.86
71047;SHT31;58703;48.978;8.982;2023-04-01T07:19:34;9.67;80.68
71047;SHT31;58703;48.978;8.982;2023-04-01T07:22:10;9.70;80.81
71047;SHT31;58703;48.978;8.982;2023-04-01T07:24:44;9.76;81.46
71047;SHT31;58703;48.978;8.982;2023-04-01T07:27:12;9.80;81.03
71047;SHT31;58703;48.978;8.982;2023-04-01T07:29:39;9.94;80.89
71047;SHT31;58703;48.978;8.982;2023-04-01T07:35:09;9.86;80.14
71047;SHT31;58703;48.978;8.982;2023-04-01T07:37:58;9.96;80.57
71047;SHT31;58703;48.978;8.982;2023-04-01T07:40:35;10.00;80.56
71047;SHT31;58703;48.978;8.982;2023-04-01T07:48:53;10.06;81.46
71047;SHT31;58703;48.978;8.982;2023-04-01T07:54:57;10.01;79.32
71047;SHT31;58703;48.978;8.982;2023-04-01T08:06:00;9.80;82.46
71047;SHT31;58703;48.978;8.982;2023-04-01T08:09:05;9.75;83.25
71047;SHT31;58703;48.978;8.982;2023-04-01T08:11:44;9.65;82.99
71047;SHT31;58703;48.978;8.982;2023-04-01T08:17:16;9.36;83.44
71047;SHT31;58703;48.978;8.982;2023-04-01T08:22:40;9.15;84.57
71047;SHT31;58703;48.978;8.982;2023-04-01T08:25:14;8.98;85.75
71047;SHT31;58703;48.978;8.982;2023-04-01T08:27:45;8.84;86.69
71047;SHT31;58703;48.978;8.982;2023-04-01T08:30:25;8.70;88.38
71047;SHT31;58703;48.978;8.982;2023-04-01T08:32:58;8.65;88.03
71047;SHT31;58703;48.978;8.982;2023-04-01T08:35:34;8.54;90.00
71047;SHT31;58703;48.978;8.982;2023-04-01T08:41:09;8.49;89.91
71047;SHT31;58703;48.978;8.982;2023-04-01T08:52:37;8.85;88.71
71047;SHT31;58703;48.978;8.982;2023-04-01T08:55:44;8.97;87.99
71047;SHT31;58703;48.978;8.982;2023-04-01T08:58:52;9.15;86.38
71047;SHT31;58703;48.978;8.982;2023-04-01T09:07:24;9.49;84.46
71047;SHT31;58703;48.978;8.982;2023-04-01T09:10:11;9.59;84.23
71047;SHT31;58703;48.978;8.982;2023-04-01T09:18:25;9.75;83.82
71047;SHT31;58703;48.978;8.982;2023-04-01T09:24:39;9.80;83.13
71047;SHT31;58703;48.978;8.982;2023-04-01T09:27:11;9.87;81.27
71047;SHT31;58703;48.978;8.982;2023-04-01T09:35:00;10.06;80.02
71047;SHT31;58703;48.978;8.982;2023-04-01T09:41:02;10.21;79.65
71047;SHT31;58703;48.978;8.982;2023-04-01T10:06:47;10.07;79.67
71047;SHT31;58703;48.978;8.982;2023-04-01T10:17:20;10.14;80.08
71047;SHT31;58703;48.978;8.982;2023-04-01T10:32:02;10.34;78.68
71047;SHT31;58703;48.978;8.982;2023-04-01T10:40:23;10.31;78.46
71047;SHT31;58703;48.978;8.982;2023-04-01T10:43:09;10.33;78.58
71047;SHT31;58703;48.978;8.982;2023-04-01T10:51:45;10.31;78.13
71047;SHT31;58703;48.978;8.982;2023-04-01T10:56:55;10.37;78.34
71047;SHT31;58703;48.978;8.982;2023-04-01T11:11:14;10.50;79.58
71047;SHT31;58703;48.978;8.982;2023-04-01T11:16:25;10.40;79.43
71047;SHT31;58703;48.978;8.982;2023-04-01T11:24:43;10.72;80.12
71047;SHT31;58703;48.978;8.982;2023-04-01T11:33:14;11.08;76.99
71047;SHT31;58703;48.978;8.982;2023-04-01T11:41:37;10.82;78.01
71047;SHT31;58703;48.978;8.982;2023-04-01T11:44:27;10.79;78.79
71047;SHT31;58703;48.978;8.982;2023-04-01T11:56:07;10.41;79.42
71047;SHT31;58703;48.978;8.982;2023-04-01T12:02:03;10.54;79.49
71047;SHT31;58703;48.978;8.982;2023-04-01T12:04:52;10.45;79.34
71047;SHT31;58703;48.978;8.982;2023-04-01T12:16:04;10.34;79.31
71047;SHT31;58703;48.978;8.982;2023-04-01T12:24:58;10.58;78.62
71047;SHT31;58703;48.978;8.982;2023-04-01T12:27:41;10.60;79.42
71047;SHT31;58703;48.978;8.982;2023-04-01T12:30:30;10.50;78.83
71047;SHT31;58703;48.978;8.982;2023-04-01T12:33:15;10.67;78.79
71047;SHT31;58703;48.978;8.982;2023-04-01T12:35:53;10.78;78.77
71047;SHT31;58703;48.978;8.982;2023-04-01T12:39:27;10.67;78.75
71047;SHT31;58703;48.978;8.982;2023-04-01T12:50:34;10.03;84.53
71047;SHT31;58703;48.978;8.982;2023-04-01T12:56:03;10.00;84.46
71047;SHT31;58703;48.978;8.982;2023-04-01T13:04:31;9.86;86.28
71047;SHT31;58703;48.978;8.982;2023-04-01T13:13:09;9.53;86.54
71047;SHT31;58703;48.978;8.982;2023-04-01T13:15:52;9.42;88.41
71047;SHT31;58703;48.978;8.982;2023-04-01T13:18:24;9.40;88.00
71047;SHT31;58703;48.978;8.982;2023-04-01T13:27:21;9.63;87.57
71047;SHT31;58703;48.978;8.982;2023-04-01T13:38:45;9.85;87.25
71047;SHT31;58703;48.978;8.982;2023-04-01T13:44:37;9.43;87.13
71047;SHT31;58703;48.978;8.982;2023-04-01T13:50:34;9.46;87.51
71047;SHT31;58703;48.978;8.982;2023-04-01T13:58:40;9.46;87.82
71047;SHT31;58703;48.978;8.982;2023-04-01T14:06:46;9.77;85.15
71047;SHT31;58703;48.978;8.982;2023-04-01T14:09:45;9.82;84.35
71047;SHT31;58703;48.978;8.982;2023-04-01T14:15:07;9.94;84.47
71047;SHT31;58703;48.978;8.982;2023-04-01T14:20:26;9.97;85.38
71047;SHT31;58703;48.978;8.982;2023-04-01T14:29:03;9.97;84.32
71047;SHT31;58703;48.978;8.982;2023-04-01T14:31:50;10.06;83.06
71047;SHT31;58703;48.978;8.982;2023-04-01T14:39:49;10.01;83.66
71047;SHT31;58703;48.978;8.982;2023-04-01T14:50:49;10.11;84.09
71047;SHT31;58703;48.978;8.982;2023-04-01T14:58:24;10.31;82.20
71047;SHT31;58703;48.978;8.982;2023-04-01T15:01:23;10.31;82.05
71047;SHT31;58703;48.978;8.982;2023-04-01T15:04:23;10.28;81.64
71047;SHT31;58703;48.978;8.982;2023-04-01T15:13:47;10.31;82.40
71047;SHT31;58703;48.978;8.982;2023-04-01T15:19:19;10.18;82.78
71047;SHT31;58703;48.978;8.982;2023-04-01T15:22:02;10.16;83.23
71047;SHT31;58703;48.978;8.982;2023-04-01T15:24:45;10.21;83.50
71047;SHT31;58703;48.978;8.982;2023-04-01T15:27:28;10.31;82.74
71047;SHT31;58703;48.978;8.982;2023-04-01T15:38:23;10.47;82.18
71047;SHT31;58703;48.978;8.982;2023-04-01T15:41:15;10.45;81.59
71047;SHT31;58703;48.978;8.982;2023-04-01T15:43:47;10.42;82.09
71047;SHT31;58703;48.978;8.982;2023-04-01T15:46:22;10.42;80.88
71047;SHT31;58703;48.978;8.982;2023-04-01T15:49:14;10.41;81.88
71047;SHT31;58703;48.978;8.982;2023-04-01T15:55:09;10.42;81.11
71047;SHT31;58703;48.978;8.982;2023-04-01T16:00:28;10.50;80.27
71047;SHT31;58703;48.978;8.982;2023-04-01T16:06:08;10.50;80.93
71047;SHT31;58703;48.978;8.982;2023-04-01T16:11:57;10.55;81.25
71047;SHT31;58703;48.978;8.982;2023-04-01T16:14:39;10.55;80.29
71047;SHT31;58703;48.978;8.982;2023-04-01T16:22:37;10.52;80.69
71047;SHT31;58703;48.978;8.982;2023-04-01T16:28:13;10.52;80.49
71047;SHT31;58703;48.978;8.982;2023-04-01T16:33:44;10.50;80.63
71047;SHT31;58703;48.978;8.982;2023-04-01T16:42:12;10.50;80.88
71047;SHT31;58703;48.978;8.982;2023-04-01T16:47:36;10.42;82.28
71047;SHT31;58703;48.978;8.982;2023-04-01T16:50:21;10.47;81.77
71047;SHT31;58703;48.978;8.982;2023-04-01T16:55:55;10.52;81.40
71047;SHT31;58703;48.978;8.982;2023-04-01T16:58:34;10.45;80.86
71047;SHT31;58703;48.978;8.982;2023-04-01T17:01:09;10.50;80.21
71047;SHT31;58703;48.978;8.982;2023-04-01T17:03:50;10.40;81.13
71047;SHT31;58703;48.978;8.982;2023-04-01T17:06:31;10.41;80.44
71047;SHT31;58703;48.978;8.982;2023-04-01T17:12:17;10.38;81.04
71047;SHT31;58703;48.978;8.982;2023-04-01T17:28:58;9.83;85.45
71047;SHT31;58703;48.978;8.982;2023-04-01T17:37:22;9.69;85.44
71047;SHT31;58703;48.978;8.982;2023-04-01T17:42:46;9.67;84.94
71047;SHT31;58703;48.978;8.982;2023-04-01T17:48:41;9.72;83.84
71047;SHT31;58703;48.978;8.982;2023-04-01T17:51:39;9.65;84.37
71047;SHT31;58703;48.978;8.982;2023-04-01T17:54:39;9.63;83.90
71047;SHT31;58703;48.978;8.982;2023-04-01T17:57:46;9.62;83.52
71047;SHT31;58703;48.978;8.982;2023-04-01T18:06:00;9.45;84.11
71047;SHT31;58703;48.978;8.982;2023-04-01T18:08:33;9.36;84.61
71047;SHT31;58703;48.978;8.982;2023-04-01T18:11:25;9.25;85.40
71047;SHT31;58703;48.978;8.982;2023-04-01T18:14:38;9.16;85.80
71047;SHT31;58703;48.978;8.982;2023-04-01T18:22:59;9.10;87.07
71047;SHT31;58703;48.978;8.982;2023-04-01T18:25:47;9.08;87.25
71047;SHT31;58703;48.978;8.982;2023-04-01T18:28:35;9.11;87.08
71047;SHT31;58703;48.978;8.982;2023-04-01T18:31:20;9.05;87.60
71047;SHT31;58703;48.978;8.982;2023-04-01T18:34:12;9.03;87.84
71047;SHT31;58703;48.978;8.982;2023-04-01T18:37:00;9.08;87.53
71047;SHT31;58703;48.978;8.982;2023-04-01T18:45:45;9.05;87.50
71047;SHT31;58703;48.978;8.982;2023-04-01T18:51:53;8.97;87.43
71047;SHT31;58703;48.978;8.982;2023-04-01T18:54:40;8.81;87.98
71047;SHT31;58703;48.978;8.982;2023-04-01T18:57:13;8.83;87.77
71047;SHT31;58703;48.978;8.982;2023-04-01T18:59:53;8.77;88.19
71047;SHT31;58703;48.978;8.982;2023-04-01T19:02:50;8.73;88.19
71047;SHT31;58703;48.978;8.982;2023-04-01T19:05:44;8.84;87.87
71047;SHT31;58703;48.978;8.982;2023-04-01T19:08:32;8.71;88.32
71047;SHT31;58703;48.978;8.982;2023-04-01T19:11:32;8.54;89.21
71047;SHT31;58703;48.978;8.982;2023-04-01T19:14:19;8.59;89.01
71047;SHT31;58703;48.978;8.982;2023-04-01T19:17:16;8.57;88.96
71047;SHT31;58703;48.978;8.982;2023-04-01T19:26:04;8.22;90.66
71047;SHT31;58703;48.978;8.982;2023-04-01T19:37:40;8.43;89.68
71047;SHT31;58703;48.978;8.982;2023-04-01T19:51:38;8.33;89.78
71047;SHT31;58703;48.978;8.982;2023-04-01T19:54:22;8.34;89.80
71047;SHT31;58703;48.978;8.982;2023-04-01T19:57:23;8.40;89.54
71047;SHT31;58703;48.978;8.982;2023-04-01T20:03:14;8.47;89.23
71047;SHT31;58703;48.978;8.982;2023-04-01T20:06:28;8.59;88.55
71047;SHT31;58703;48.978;8.982;2023-04-01T20:14:57;8.68;88.23
71047;SHT31;58703;48.978;8.982;2023-04-01T20:17:43;8.68;88.34
71047;SHT31;58703;48.978;8.982;2023-04-01T20:25:54;8.65;88.60
71047;SHT31;58703;48.978;8.982;2023-04-01T20:28:44;8.73;88.12
71047;SHT31;58703;48.978;8.982;2023-04-01T20:42:47;8.89;87.51
71047;SHT31;58703;48.978;8.982;2023-04-01T20:45:37;9.05;86.66
71047;SHT31;58703;48.978;8.982;2023-04-01T20:51:06;9.01;86.97
71047;SHT31;58703;48.978;8.982;2023-04-01T20:56:36;8.91;87.78
71047;SHT31;58703;48.978;8.982;2023-04-01T21:20:38;9.07;87.06
71047;SHT31;58703;48.978;8.982;2023-04-01T21:26:01;9.10;86.77
71047;SHT31;58703;48.978;8.982;2023-04-01T21:46:34;9.03;86.86
71047;SHT31;58703;48.978;8.982;2023-04-01T22:06:30;9.00;86.58
71047;SHT31;58703;48.978;8.982;2023-04-01T22:09:17;9.08;85.87
71047;SHT31;58703;48.978;8.982;2023-04-01T22:12:14;9.10;85.71
71047;SHT31;58703;48.978;8.982;2023-04-01T22:23:54;9.04;86.30
71047;SHT31;58703;48.978;8.982;2023-04-01T22:35:02;8.80;88.09
71047;SHT31;58703;48.978;8.982;2023-04-01T22:41:05;8.70;88.67
71047;SHT31;58703;48.978;8.982;2023-04-01T22:43:38;8.56;89.84
71047;SHT31;58703;48.978;8.982;2023-04-01T22:48:50;8.40;90.77
71047;SHT31;58703;48.978;8.982;2023-04-01T22:51:45;8.46;89.61
71047;SHT31;58703;48.978;8.982;2023-04-01T22:54:19;8.42;89.93
71047;SHT31;58703;48.978;8.982;2023-04-01T22:56:55;8.36;90.96
71047;SHT31;58703;48.978;8.982;2023-04-01T23:02:06;8.36;90.60
71047;SHT31;58703;48.978;8.982;2023-04-01T23:04:39;8.30;90.84
71047;SHT31;58703;48.978;8.982;2023-04-01T23:07:48;8.47;90.08
71047;SHT31;58703;48.978;8.982;2023-04-01T23:10:24;8.56;89.44
71047;SHT31;58703;48.978;8.982;2023-04-01T23:12:56;8.60;89.20
71047;SHT31;58703;48.978;8.982;2023-04-01T23:15:23;8.56;89.44
71047;SHT31;58703;48.978;8.982;2023-04-01T23:18:08;8.53;89.96
71047;SHT31;58703;48.978;8.982;2023-04-01T23:29:04;8.57;89.21
71047;SHT31;58703;48.978;8.982;2023-04-01T23:31:44;8.67;88.87
71047;SHT31;58703;48.978;8.982;2023-04-01T23:37:12;8.65;89.02
71047;SHT31;58703;48.978;8.982;2023-04-01T23:39:47;8.70;88.40
71047;SHT31;58703;48.978;8.982;2023-04-01T23:42:21;8.68;88.69
71047;SHT31;58703;48.978;8.982;2023-04-01T23:44:51;8.77;87.75
71047;SHT31;58703;48.978;8.982;2023-04-01T23:47:26;8.85;87.60
71047;SHT31;58703;48.978;8.982;2023-04-01T23:49:57;8.83;87.90
71047;SHT31;58703;48.978;8.982;2023-04-01T23:52:30;8.83;87.48
71047;SHT31;58703;48.978;8.982;2023-04-01T23:55:08;8.89;87.04
71047;SHT31;58703;48.978;8.982;2023-04-01T23:57:35;8.84;87.44
